University of Illinois-Willard Airport

Airport
ICAO code: 
KCMI
Summary
ICAO Region: 
NAM
Territory: 
Location: 
Champaign/Urbana, Illinois,
Coordinates: 
Aerial View: 
40° 2' 22.92" N, 88° 16' 33.272" W
Airport LOS: 
Parallel Runway Operation
Metar
Observation
KCMI 040653Z AUTO 01012KT 10SM CLR 03/01 A3012 RMK AO2 SLP201 T00330011
Station
Champaign / Urbana, University Of Illinois-Willard Airport
Date/Time
2021-12-04 06:53:00
Wind direction
10°
Wind speed
12 kts
Lowest cloud amount
n/a
Temperature
3.3°C
Dew point
1.1°C
Humidity
85%
Weather condition
n/a

Description

University of Illinois Willard Airport is an airport owned and operated by the University of Illinois at Urbana-Champaign located south of Savoy in Tolono Township, Champaign County, Illinois.

Climatology

Humid continental climate (Köppen climate classification Dfa) - characterized by four seasons: cold, windy, snowy winters, mild springs, hot, humid summers, and crisp and relatively short autumns. Precipitation reaches its lowest in January and February and peaks in summer and latter half of spring.

Runways

Designator Length Width Surface Rops
14R/32L 1163 23 ASP Yes/Yes
18/36 1615 46 CON Yes/Yes
4/22 1981 46 CON Yes/Yes
14L/32R 2469 46 CON Yes/Yes
Airport map: 
Aerial View: 

SKYbrary Partners:

Safety knowledge contributed by: